L'Annonciation, Canada
Current Conditions -  °F | °C
As of 6:00 PM on Sunday 21 Dec 2014 (Local Time) from CYMX Reporting Station
Light Snow Light Snow  
Wind Chill:   Ceiling: 1800
Heat Index: 18°   Visibility: 10mi
Dew Point: 12°   Wind: 6mph
Humidity: 79%   Direction: 80°E
Pressure: 30.38"   Gusts: NA
Location:  46.4°N, 74.87°W
Report Text: CYMX 212300Z 08005KT 10SM -SN SCT011 OVC018 M08/M11 A3038 RMK SC4SC4 SLP295
Loading
Personal Weather Stations






























Interactive Weather Map New forecast layout! Learn more

10-Day Weather Forecast

Advertisements
Track Severe Weather on mobile